Time;durP1;ratioP1;P1;durP2;ratioP2;P2;SDS_P1;SDS_P2;PMS_P1;PMS_P2;Temp;Humidity;BMP_temperature;BMP_pressure;BME280_temperature;BME280_humidity;BME280_pressure;Samples;Min_cycle;Max_cycle;Signal;HPM_P1;HPM_P2
2022/12/19 00:02:28;;;;;;;38.65;16.92;;;;;;;;;;5094728;28;20117;-76
2022/12/19 00:05:14;;;;;;;35.92;16.75;;;;;;;;;;5095104;28;20019;-76
2022/12/19 00:07:59;;;;;;;40.42;17.05;;;;;;;;;;5081727;28;20448;-76
2022/12/19 00:10:53;;;;;;;39.97;18.40;;;;;;;;;;5094734;28;20024;-75
2022/12/19 00:13:39;;;;;;;37.65;18.23;;;;;;;;;;5095078;28;20031;-77
2022/12/19 00:16:26;;;;;;;38.90;17.88;;;;;;;;;;5094805;28;20419;-75
2022/12/19 00:19:11;;;;;;;43.45;19.05;;;;;;;;;;5080171;28;20039;-76
2022/12/19 00:21:57;;;;;;;42.63;19.58;;;;;;;;;;5095082;28;20027;-75
2022/12/19 00:24:43;;;;;;;40.20;18.67;;;;;;;;;;5094599;28;20016;-75
2022/12/19 00:27:32;;;;;;;38.08;17.38;;;;;;;;;;5096037;28;20016;-76
2022/12/19 00:30:18;;;;;;;40.03;17.35;;;;;;;;;;5095659;28;20106;-75
2022/12/19 00:33:03;;;;;;;38.85;17.60;;;;;;;;;;5094212;28;20035;-76
2022/12/19 00:35:49;;;;;;;40.25;18.35;;;;;;;;;;5094859;28;20087;-78
2022/12/19 00:38:34;;;;;;;39.45;17.60;;;;;;;;;;5095179;28;20024;-76
2022/12/19 00:41:21;;;;;;;35.65;16.25;;;;;;;;;;5094653;28;20085;-76
2022/12/19 00:44:09;;;;;;;40.85;17.15;;;;;;;;;;5094250;28;20016;-77
2022/12/19 00:46:54;;;;;;;41.33;17.33;;;;;;;;;;5095179;28;20023;-75
2022/12/19 00:49:40;;;;;;;39.03;16.92;;;;;;;;;;5094013;28;20036;-76
2022/12/19 00:52:26;;;;;;;37.30;16.90;;;;;;;;;;5095994;28;20043;-77
2022/12/19 00:55:11;;;;;;;37.17;16.52;;;;;;;;;;5094863;28;20085;-76
2022/12/19 00:57:57;;;;;;;38.38;16.30;;;;;;;;;;5094595;28;20081;-75
2022/12/19 01:00:42;;;;;;;40.90;16.42;;;;;;;;;;5094804;28;20032;-75
2022/12/19 01:03:28;;;;;;;40.78;16.17;;;;;;;;;;5094543;28;20020;-77
2022/12/19 01:06:13;;;;;;;40.92;17.40;;;;;;;;;;5094014;28;20107;-76
2022/12/19 01:08:59;;;;;;;39.72;16.58;;;;;;;;;;5080532;28;20024;-76
2022/12/19 01:14:56;;;;;;;40.58;17.45;;;;;;;;;;5076350;28;20024;-76
2022/12/19 01:17:42;;;;;;;41.42;17.10;;;;;;;;;;5094479;28;20016;-76
2022/12/19 01:20:27;;;;;;;37.65;16.80;;;;;;;;;;5066636;28;20103;-75
2022/12/19 01:23:16;;;;;;;39.13;17.38;;;;;;;;;;5080172;28;20012;-76
2022/12/19 01:26:02;;;;;;;42.83;17.50;;;;;;;;;;5093823;28;20503;-75
2022/12/19 01:28:47;;;;;;;47.88;18.70;;;;;;;;;;5093796;28;20032;-74
2022/12/19 01:31:33;;;;;;;43.72;18.00;;;;;;;;;;5093093;28;20379;-75
2022/12/19 01:34:19;;;;;;;44.40;18.80;;;;;;;;;;5101048;28;20032;-75
2022/12/19 01:37:04;;;;;;;43.92;17.38;;;;;;;;;;5096427;28;20020;-76
2022/12/19 01:39:50;;;;;;;42.35;18.90;;;;;;;;;;5096432;28;20028;-75
2022/12/19 01:42:36;;;;;;;41.97;18.20;;;;;;;;;;5086406;28;20016;-74
2022/12/19 01:45:23;;;;;;;46.40;18.13;;;;;;;;;;5079613;28;20062;-74
2022/12/19 01:48:22;;;;;;;45.05;18.50;;;;;;;;;;5093945;28;20404;-74
2022/12/19 01:51:11;;;;;;;43.92;18.52;;;;;;;;;;5095239;28;20450;-74
2022/12/19 01:53:58;;;;;;;48.95;19.25;;;;;;;;;;5094272;28;20131;-74
2022/12/19 01:56:45;;;;;;;39.30;17.83;;;;;;;;;;5094640;28;20477;-75
2022/12/19 01:59:33;;;;;;;44.28;17.52;;;;;;;;;;5093143;28;20031;-74
2022/12/19 02:02:25;;;;;;;43.92;18.10;;;;;;;;;;5093045;28;20044;-74
2022/12/19 02:05:11;;;;;;;44.42;18.58;;;;;;;;;;5093702;28;20015;-75
2022/12/19 02:07:56;;;;;;;42.08;18.38;;;;;;;;;;5093758;28;20020;-75
2022/12/19 02:10:42;;;;;;;46.67;18.08;;;;;;;;;;5093274;28;20054;-74
2022/12/19 02:13:27;;;;;;;45.67;19.40;;;;;;;;;;5093745;28;20024;-75
2022/12/19 02:16:13;;;;;;;43.53;18.55;;;;;;;;;;5094228;28;20023;-73
2022/12/19 02:19:17;;;;;;;47.88;19.20;;;;;;;;;;5093690;28;20047;-74
2022/12/19 02:22:03;;;;;;;46.08;19.00;;;;;;;;;;5093589;28;20016;-73
2022/12/19 02:24:52;;;;;;;49.05;19.58;;;;;;;;;;5103047;28;20048;-73
2022/12/19 02:27:43;;;;;;;52.85;20.80;;;;;;;;;;5101663;28;20016;-74
2022/12/19 02:30:38;;;;;;;45.58;19.58;;;;;;;;;;5109444;28;20035;-73
2022/12/19 02:33:33;;;;;;;51.67;19.48;;;;;;;;;;5094068;28;20039;-73
2022/12/19 02:36:28;;;;;;;48.35;19.83;;;;;;;;;;5093571;28;20449;-74
2022/12/19 02:39:26;;;;;;;49.40;19.27;;;;;;;;;;5093842;28;20032;-74
2022/12/19 02:42:13;;;;;;;38.97;17.15;;;;;;;;;;5082815;28;20038;-73
2022/12/19 02:45:00;;;;;;;44.47;17.70;;;;;;;;;;5097677;28;20107;-73
2022/12/19 02:47:45;;;;;;;47.63;18.77;;;;;;;;;;5082044;28;20112;-74
2022/12/19 02:50:34;;;;;;;45.63;18.67;;;;;;;;;;5097125;28;20020;-74
2022/12/19 02:53:20;;;;;;;41.83;17.67;;;;;;;;;;5098055;28;20076;-74
2022/12/19 02:56:05;;;;;;;40.55;17.75;;;;;;;;;;5097159;28;20039;-74
2022/12/19 02:58:54;;;;;;;42.72;17.58;;;;;;;;;;5097194;28;20404;-73
2022/12/19 03:01:39;;;;;;;47.10;17.77;;;;;;;;;;5079817;28;20044;-74
2022/12/19 03:04:25;;;;;;;42.85;17.42;;;;;;;;;;5096750;28;20020;-74
2022/12/19 03:07:33;;;;;;;42.83;17.98;;;;;;;;;;5096024;28;20028;-74
2022/12/19 03:10:30;;;;;;;48.00;18.27;;;;;;;;;;5096074;28;20031;-73
2022/12/19 03:13:32;;;;;;;52.28;18.52;;;;;;;;;;5096186;28;20081;-74
2022/12/19 03:16:18;;;;;;;44.60;18.40;;;;;;;;;;5082019;28;20353;-73
2022/12/19 03:19:07;;;;;;;41.78;17.90;;;;;;;;;;5082147;28;20357;-74
2022/12/19 03:21:52;;;;;;;47.50;19.45;;;;;;;;;;5082190;28;20031;-74
2022/12/19 03:24:38;;;;;;;47.63;18.83;;;;;;;;;;5095750;28;20106;-73
2022/12/19 03:27:28;;;;;;;47.78;19.25;;;;;;;;;;5081799;28;20306;-75
2022/12/19 03:30:14;;;;;;;44.20;17.40;;;;;;;;;;5095212;28;20089;-74
2022/12/19 03:33:00;;;;;;;43.30;17.05;;;;;;;;;;5095762;28;20024;-74
2022/12/19 03:35:48;;;;;;;40.60;17.83;;;;;;;;;;5095768;28;20024;-74
2022/12/19 03:38:34;;;;;;;41.22;17.58;;;;;;;;;;5081779;28;20069;-74
2022/12/19 03:43:07;;;;;;;39.80;16.77;;;;;;;;;;5096478;28;20024;-74
2022/12/19 03:44:27;;;;;;;39.72;16.80;;;;;;;;;;5096026;28;20016;-74
2022/12/19 03:47:19;;;;;;;40.90;18.20;;;;;;;;;;5094571;28;20026;-74
2022/12/19 03:50:05;;;;;;;45.72;17.27;;;;;;;;;;5095607;28;20306;-74
2022/12/19 03:53:09;;;;;;;46.65;17.52;;;;;;;;;;5095337;28;20031;-74
2022/12/19 03:56:15;;;;;;;39.88;17.08;;;;;;;;;;5083668;28;20406;-74
2022/12/19 03:59:05;;;;;;;41.08;17.23;;;;;;;;;;5096861;28;20104;-74
2022/12/19 04:01:52;;;;;;;44.85;17.73;;;;;;;;;;5094835;28;20052;-74
2022/12/19 04:04:42;;;;;;;42.80;18.48;;;;;;;;;;5095369;28;20023;-74
2022/12/19 04:07:28;;;;;;;46.33;18.05;;;;;;;;;;5082394;28;20443;-74
2022/12/19 04:10:15;;;;;;;43.35;18.80;;;;;;;;;;5095957;28;20353;-73
2022/12/19 04:13:13;;;;;;;48.08;19.55;;;;;;;;;;5095279;28;20066;-74
2022/12/19 04:16:01;;;;;;;46.25;17.05;;;;;;;;;;5081900;28;20024;-73
2022/12/19 04:18:50;;;;;;;36.85;16.45;;;;;;;;;;5095524;28;20012;-74
2022/12/19 04:21:42;;;;;;;43.20;16.13;;;;;;;;;;5095727;28;20015;-74
2022/12/19 04:24:32;;;;;;;42.72;17.63;;;;;;;;;;5096414;28;20016;-74
2022/12/19 04:27:18;;;;;;;41.80;16.48;;;;;;;;;;5082270;28;20016;-74
2022/12/19 04:30:07;;;;;;;39.63;17.60;;;;;;;;;;5080956;28;20461;-74
2022/12/19 04:32:53;;;;;;;39.45;16.80;;;;;;;;;;5095864;28;20039;-74
2022/12/19 04:35:38;;;;;;;38.88;17.13;;;;;;;;;;5095444;28;20024;-74
2022/12/19 04:38:25;;;;;;;43.95;17.27;;;;;;;;;;5095047;28;20020;-74
2022/12/19 04:41:11;;;;;;;39.60;17.17;;;;;;;;;;5095696;28;20020;-74
2022/12/19 04:43:56;;;;;;;40.40;16.60;;;;;;;;;;5079636;28;20032;-74
2022/12/19 04:46:42;;;;;;;40.33;17.73;;;;;;;;;;5080690;28;20012;-74
2022/12/19 04:49:28;;;;;;;39.15;17.17;;;;;;;;;;5080927;28;20047;-73
2022/12/19 04:52:13;;;;;;;44.08;18.00;;;;;;;;;;5079891;28;20114;-73
2022/12/19 04:54:59;;;;;;;40.25;17.02;;;;;;;;;;5094642;28;20027;-74
2022/12/19 04:57:44;;;;;;;42.72;18.05;;;;;;;;;;5094399;28;20012;-74
2022/12/19 05:00:30;;;;;;;41.40;18.55;;;;;;;;;;5080230;28;20415;-73
2022/12/19 05:03:16;;;;;;;41.78;17.17;;;;;;;;;;5094599;28;20052;-74
2022/12/19 05:06:02;;;;;;;49.20;19.67;;;;;;;;;;5094740;28;20012;-73
2022/12/19 05:08:48;;;;;;;43.00;18.63;;;;;;;;;;5095808;28;20035;-74
2022/12/19 05:11:34;;;;;;;43.17;17.48;;;;;;;;;;5095575;28;20016;-73
2022/12/19 05:14:19;;;;;;;47.53;18.88;;;;;;;;;;5080297;28;20339;-74
2022/12/19 05:17:05;;;;;;;39.58;16.88;;;;;;;;;;5079885;28;20035;-74
2022/12/19 05:19:50;;;;;;;42.25;17.20;;;;;;;;;;5094942;28;20028;-74
2022/12/19 05:22:36;;;;;;;40.50;16.75;;;;;;;;;;5097568;28;20115;-74
2022/12/19 05:25:21;;;;;;;45.90;18.17;;;;;;;;;;5094220;28;20020;-74
2022/12/19 05:28:07;;;;;;;40.88;18.17;;;;;;;;;;5094668;28;20098;-75
2022/12/19 05:31:03;;;;;;;41.03;17.38;;;;;;;;;;5094186;28;20023;-75
2022/12/19 05:33:49;;;;;;;39.95;17.33;;;;;;;;;;5080123;28;20098;-75
2022/12/19 05:36:34;;;;;;;33.70;17.25;;;;;;;;;;5094433;28;20028;-74
2022/12/19 05:39:20;;;;;;;40.53;18.55;;;;;;;;;;5081210;28;20024;-74
2022/12/19 05:42:05;;;;;;;37.60;18.17;;;;;;;;;;5079495;28;20384;-74
2022/12/19 05:44:51;;;;;;;40.42;17.10;;;;;;;;;;5079810;28;20016;-75
2022/12/19 05:47:36;;;;;;;41.25;17.25;;;;;;;;;;5094510;28;20016;-73
2022/12/19 05:50:22;;;;;;;37.17;16.83;;;;;;;;;;5094120;28;20028;-74
2022/12/19 05:53:08;;;;;;;42.22;16.83;;;;;;;;;;5093919;28;20032;-74
2022/12/19 05:56:07;;;;;;;33.33;17.25;;;;;;;;;;5094430;28;20032;-75
2022/12/19 05:58:53;;;;;;;38.58;18.15;;;;;;;;;;5093567;28;20027;-74
2022/12/19 06:01:39;;;;;;;41.95;18.40;;;;;;;;;;5086118;28;20055;-73
2022/12/19 06:04:25;;;;;;;45.03;18.33;;;;;;;;;;5094028;28;20031;-74
2022/12/19 06:07:10;;;;;;;42.92;18.25;;;;;;;;;;5093419;28;20016;-76
2022/12/19 06:09:56;;;;;;;41.60;18.80;;;;;;;;;;5093505;28;20105;-77
2022/12/19 06:12:41;;;;;;;38.88;17.80;;;;;;;;;;5078543;28;20095;-77
2022/12/19 06:15:27;;;;;;;42.03;18.13;;;;;;;;;;5078963;28;20103;-76
2022/12/19 06:18:12;;;;;;;37.33;17.83;;;;;;;;;;5093826;28;20107;-77
2022/12/19 06:20:59;;;;;;;43.63;18.33;;;;;;;;;;5094647;28;20047;-76
2022/12/19 06:23:45;;;;;;;36.10;17.60;;;;;;;;;;5093147;28;20020;-76
2022/12/19 06:26:31;;;;;;;39.50;18.23;;;;;;;;;;5094502;28;20027;-77
2022/12/19 06:29:16;;;;;;;42.58;19.17;;;;;;;;;;5078670;28;20066;-75
2022/12/19 06:32:02;;;;;;;43.30;19.75;;;;;;;;;;5078628;28;20023;-76
2022/12/19 06:34:48;;;;;;;47.03;19.70;;;;;;;;;;5079237;28;20008;-76
2022/12/19 06:37:33;;;;;;;39.05;19.20;;;;;;;;;;5078037;28;20016;-76
2022/12/19 06:42:21;;;;;;;47.17;19.67;;;;;;;;;;5093123;28;20031;-75
2022/12/19 06:43:25;;;;;;;39.67;18.52;;;;;;;;;;5094014;28;20327;-77
2022/12/19 06:46:10;;;;;;;42.47;18.38;;;;;;;;;;5079452;28;20153;-77
2022/12/19 06:48:56;;;;;;;43.33;18.70;;;;;;;;;;5092972;28;20450;-76
2022/12/19 06:51:41;;;;;;;44.80;19.52;;;;;;;;;;5092807;28;20387;-76
2022/12/19 06:54:27;;;;;;;39.03;18.27;;;;;;;;;;5093913;28;20107;-74
2022/12/19 06:57:13;;;;;;;43.17;18.92;;;;;;;;;;5092879;28;20020;-76
2022/12/19 06:59:58;;;;;;;44.13;18.90;;;;;;;;;;5099983;28;20063;-77
2022/12/19 07:02:47;;;;;;;44.35;18.92;;;;;;;;;;5083354;28;20040;-79
2022/12/19 07:05:32;;;;;;;41.95;18.52;;;;;;;;;;5060923;28;20021;-79
2022/12/19 07:08:18;;;;;;;40.65;18.10;;;;;;;;;;5075124;28;20122;-79
2022/12/19 07:11:04;;;;;;;42.08;17.42;;;;;;;;;;5059632;28;20039;-77
2022/12/19 07:13:49;;;;;;;34.35;16.17;;;;;;;;;;5059176;28;20408;-79
2022/12/19 07:16:35;;;;;;;45.83;19.60;;;;;;;;;;5073500;28;20028;-79
2022/12/19 07:19:21;;;;;;;40.00;17.92;;;;;;;;;;5058957;28;20020;-77
2022/12/19 07:22:08;;;;;;;33.22;15.98;;;;;;;;;;5074989;28;20021;-79
2022/12/19 07:24:54;;;;;;;34.30;16.23;;;;;;;;;;5074945;28;20031;-78
2022/12/19 07:27:40;;;;;;;40.35;16.33;;;;;;;;;;5076178;28;20029;-79
2022/12/19 07:30:25;;;;;;;34.22;15.75;;;;;;;;;;5079505;28;20481;-78
2022/12/19 07:33:11;;;;;;;40.47;16.63;;;;;;;;;;5066155;28;20323;-79
2022/12/19 07:35:57;;;;;;;36.65;17.30;;;;;;;;;;5077893;28;20021;-79
2022/12/19 07:38:43;;;;;;;42.97;17.17;;;;;;;;;;5062961;28;20107;-78
2022/12/19 07:41:28;;;;;;;37.88;15.68;;;;;;;;;;5062481;28;20104;-78
2022/12/19 07:44:15;;;;;;;35.97;16.10;;;;;;;;;;5076709;28;20083;-78
2022/12/19 07:47:00;;;;;;;39.67;16.27;;;;;;;;;;5063511;28;20021;-79
2022/12/19 07:49:46;;;;;;;39.33;17.42;;;;;;;;;;5076651;28;20028;-78
2022/12/19 07:52:32;;;;;;;32.08;14.77;;;;;;;;;;5068863;28;20028;-78
2022/12/19 07:55:17;;;;;;;34.78;15.73;;;;;;;;;;5077028;28;20028;-79
2022/12/19 07:58:03;;;;;;;36.20;14.75;;;;;;;;;;5077303;28;20082;-78
2022/12/19 08:00:55;;;;;;;34.58;14.65;;;;;;;;;;5065933;28;20106;-80
2022/12/19 08:03:41;;;;;;;30.80;15.30;;;;;;;;;;5097183;28;20026;-79
2022/12/19 08:06:27;;;;;;;33.00;15.38;;;;;;;;;;5081296;28;20016;-79
2022/12/19 08:09:13;;;;;;;35.05;16.13;;;;;;;;;;5081007;28;20012;-79
2022/12/19 08:11:58;;;;;;;30.48;14.80;;;;;;;;;;5096120;28;20052;-78
2022/12/19 08:14:44;;;;;;;32.47;15.85;;;;;;;;;;5095931;28;20095;-79
2022/12/19 08:17:29;;;;;;;37.55;17.10;;;;;;;;;;5096069;28;20027;-78
2022/12/19 08:20:15;;;;;;;38.05;15.88;;;;;;;;;;5095335;28;20028;-79
2022/12/19 08:23:01;;;;;;;35.08;15.18;;;;;;;;;;5081711;28;20055;-78
2022/12/19 08:25:46;;;;;;;37.47;15.65;;;;;;;;;;5095973;28;20137;-79
2022/12/19 08:28:32;;;;;;;34.22;15.30;;;;;;;;;;5095268;28;20016;-78
2022/12/19 08:31:20;;;;;;;34.03;15.40;;;;;;;;;;5081996;28;20016;-78
2022/12/19 08:34:05;;;;;;;30.02;15.23;;;;;;;;;;5096235;28;20032;-78
2022/12/19 08:36:51;;;;;;;33.65;15.57;;;;;;;;;;5081382;28;20035;-76
2022/12/19 08:39:36;;;;;;;34.33;15.25;;;;;;;;;;5093967;28;20051;-79
2022/12/19 08:42:22;;;;;;;35.60;16.08;;;;;;;;;;5080145;28;20035;-78
2022/12/19 08:45:08;;;;;;;34.72;16.23;;;;;;;;;;5081086;28;20020;-78
2022/12/19 08:47:53;;;;;;;38.22;16.38;;;;;;;;;;5095612;28;20116;-78
2022/12/19 08:50:39;;;;;;;37.67;15.55;;;;;;;;;;5094850;28;20076;-79
2022/12/19 08:53:25;;;;;;;33.58;15.90;;;;;;;;;;5095650;28;20020;-79
2022/12/19 08:56:18;;;;;;;35.72;16.10;;;;;;;;;;5094646;28;20016;-77
2022/12/19 08:59:04;;;;;;;33.33;15.30;;;;;;;;;;5081960;28;20035;-78
2022/12/19 09:01:50;;;;;;;34.22;15.23;;;;;;;;;;5095304;28;20127;-78
2022/12/19 09:04:36;;;;;;;32.47;15.02;;;;;;;;;;5093924;28;20047;-78
2022/12/19 09:07:25;;;;;;;31.20;14.93;;;;;;;;;;5080034;28;20020;-79
2022/12/19 09:10:10;;;;;;;33.45;15.85;;;;;;;;;;5094953;28;20110;-78
2022/12/19 09:12:56;;;;;;;34.33;15.68;;;;;;;;;;5095302;28;20016;-76
2022/12/19 09:15:42;;;;;;;34.75;15.82;;;;;;;;;;5094942;28;20016;-77
2022/12/19 09:18:30;;;;;;;35.30;15.50;;;;;;;;;;5098009;28;20129;-79
2022/12/19 09:21:17;;;;;;;31.35;14.30;;;;;;;;;;5101967;28;20028;-78
2022/12/19 09:24:03;;;;;;;36.67;15.93;;;;;;;;;;5082798;28;20145;-77
2022/12/19 09:26:49;;;;;;;29.88;15.43;;;;;;;;;;5081222;28;20012;-78
2022/12/19 09:29:34;;;;;;;31.98;15.70;;;;;;;;;;5095212;28;20058;-78
2022/12/19 09:32:20;;;;;;;34.33;16.08;;;;;;;;;;5094876;28;20501;-78
2022/12/19 09:35:06;;;;;;;41.00;15.88;;;;;;;;;;5095675;28;20103;-78
2022/12/19 09:37:51;;;;;;;33.63;15.95;;;;;;;;;;5095294;28;20028;-78
2022/12/19 09:40:48;;;;;;;37.05;15.57;;;;;;;;;;5094140;28;20103;-79
2022/12/19 09:43:43;;;;;;;38.28;16.13;;;;;;;;;;5096033;28;20020;-82
2022/12/19 09:46:34;;;;;;;36.58;16.33;;;;;;;;;;5082527;28;20103;-77
2022/12/19 09:49:22;;;;;;;36.20;16.65;;;;;;;;;;5079126;28;20099;-78
2022/12/19 09:52:16;;;;;;;30.50;14.73;;;;;;;;;;5093854;28;20020;-78
2022/12/19 09:55:04;;;;;;;33.42;15.75;;;;;;;;;;5094822;28;20016;-78
2022/12/19 09:57:50;;;;;;;44.17;16.05;;;;;;;;;;5093848;28;20020;-78
2022/12/19 10:00:42;;;;;;;32.63;16.52;;;;;;;;;;5095349;28;20103;-77
2022/12/19 10:03:35;;;;;;;40.10;15.25;;;;;;;;;;5094560;28;20092;-77
2022/12/19 10:06:22;;;;;;;34.53;15.20;;;;;;;;;;5094956;28;20031;-75
2022/12/19 10:09:16;;;;;;;81.70;34.50;;;;;;;;;;5094701;28;20108;-78
2022/12/19 10:12:20;;;;;;;36.80;16.48;;;;;;;;;;5094375;28;20085;-77
2022/12/19 10:15:14;;;;;;;32.78;16.23;;;;;;;;;;5095302;28;20024;-76
2022/12/19 10:18:18;;;;;;;34.10;15.25;;;;;;;;;;5094528;28;20416;-76
2022/12/19 10:21:30;;;;;;;30.48;15.05;;;;;;;;;;5078720;28;20385;-78
2022/12/19 10:24:18;;;;;;;33.13;14.80;;;;;;;;;;5044638;28;20039;-77
2022/12/19 10:27:12;;;;;;;32.67;15.60;;;;;;;;;;5093400;28;20024;-77
2022/12/19 10:30:01;;;;;;;30.35;14.55;;;;;;;;;;5079594;28;20020;-77
2022/12/19 10:33:09;;;;;;;30.63;15.68;;;;;;;;;;5093888;28;20043;-77
2022/12/19 10:35:59;;;;;;;32.28;14.80;;;;;;;;;;5094967;28;20036;-78
2022/12/19 10:38:48;;;;;;;33.60;15.02;;;;;;;;;;5080536;28;20107;-78
2022/12/19 10:41:36;;;;;;;32.58;15.43;;;;;;;;;;5093342;28;20024;-77
2022/12/19 10:44:25;;;;;;;52.10;23.35;;;;;;;;;;5093836;28;20012;-77
2022/12/19 10:47:14;;;;;;;54.55;24.10;;;;;;;;;;5093852;28;20165;-79
2022/12/19 10:50:00;;;;;;;48.78;17.60;;;;;;;;;;5080833;28;20024;-77
2022/12/19 10:52:50;;;;;;;51.40;20.95;;;;;;;;;;5093768;28;20096;-78
2022/12/19 10:55:49;;;;;;;51.25;20.38;;;;;;;;;;5094051;28;20031;-77
2022/12/19 10:58:36;;;;;;;64.45;21.48;;;;;;;;;;5093160;28;20085;-79
2022/12/19 11:01:26;;;;;;;65.88;23.58;;;;;;;;;;5093926;28;20045;-78
2022/12/19 11:04:12;;;;;;;48.67;24.05;;;;;;;;;;5084915;28;20020;-74
2022/12/19 11:07:03;;;;;;;39.92;20.10;;;;;;;;;;5104716;28;20027;-77
2022/12/19 11:09:49;;;;;;;45.88;20.23;;;;;;;;;;5118838;28;20028;-76
2022/12/19 11:12:35;;;;;;;35.10;15.93;;;;;;;;;;5110307;28;20022;-78
2022/12/19 11:15:20;;;;;;;35.67;17.38;;;;;;;;;;5082949;28;20030;-78
2022/12/19 11:18:07;;;;;;;38.13;17.38;;;;;;;;;;5107285;28;20012;-76
2022/12/19 11:20:54;;;;;;;38.60;17.98;;;;;;;;;;5110228;28;20023;-77
2022/12/19 11:23:51;;;;;;;40.30;18.00;;;;;;;;;;5100947;28;20020;-78
2022/12/19 11:26:41;;;;;;;38.15;17.05;;;;;;;;;;5107398;28;20016;-78
2022/12/19 11:29:40;;;;;;;41.10;17.70;;;;;;;;;;5099048;28;20028;-78
2022/12/19 11:32:33;;;;;;;36.08;17.63;;;;;;;;;;5100935;28;20092;-77
2022/12/19 11:35:19;;;;;;;46.28;17.98;;;;;;;;;;5099051;28;20136;-78
2022/12/19 11:38:05;;;;;;;50.97;19.45;;;;;;;;;;5111450;28;20024;-76
2022/12/19 11:40:54;;;;;;;48.35;18.85;;;;;;;;;;5110841;28;20000;-76
2022/12/19 11:43:46;;;;;;;47.00;19.33;;;;;;;;;;5093690;28;20050;-78
2022/12/19 11:46:42;;;;;;;42.67;18.95;;;;;;;;;;5097713;28;20342;-78
2022/12/19 11:49:30;;;;;;;44.10;19.25;;;;;;;;;;5082879;28;20414;-77
2022/12/19 11:52:22;;;;;;;50.72;20.55;;;;;;;;;;5083249;28;20020;-78
2022/12/19 11:55:18;;;;;;;41.10;18.70;;;;;;;;;;5083399;28;20022;-76
2022/12/19 11:58:04;;;;;;;47.45;20.13;;;;;;;;;;5083253;28;20464;-76
2022/12/19 12:00:49;;;;;;;44.35;19.42;;;;;;;;;;5082103;28;20044;-77
2022/12/19 12:03:43;;;;;;;46.70;19.23;;;;;;;;;;5096656;28;20023;-78
2022/12/19 12:06:33;;;;;;;49.92;20.08;;;;;;;;;;5086096;28;20188;-77
2022/12/19 12:09:18;;;;;;;42.45;19.90;;;;;;;;;;5082943;28;20024;-77
2022/12/19 12:12:16;;;;;;;44.38;18.50;;;;;;;;;;5081197;28;20062;-78
2022/12/19 12:15:20;;;;;;;41.92;19.40;;;;;;;;;;5095950;28;20024;-78
2022/12/19 12:18:25;;;;;;;38.55;18.58;;;;;;;;;;5096916;28;20031;-78
2022/12/19 12:21:25;;;;;;;45.50;18.33;;;;;;;;;;5080957;28;20028;-78
2022/12/19 12:24:13;;;;;;;46.85;19.92;;;;;;;;;;5081154;28;20020;-78
2022/12/19 12:27:28;;;;;;;43.78;20.35;;;;;;;;;;5096042;28;20454;-77
2022/12/19 12:30:16;;;;;;;37.22;16.67;;;;;;;;;;5073799;28;20366;-76
2022/12/19 12:33:13;;;;;;;34.25;16.52;;;;;;;;;;5096231;28;20024;-78
2022/12/19 12:36:06;;;;;;;38.05;17.13;;;;;;;;;;5095683;28;20118;-78
2022/12/19 12:39:11;;;;;;;49.38;18.88;;;;;;;;;;5095791;28;20089;-77
2022/12/19 12:42:26;;;;;;;47.42;18.88;;;;;;;;;;5098471;28;20031;-77
2022/12/19 12:45:20;;;;;;;47.97;20.23;;;;;;;;;;5096009;28;20020;-78
2022/12/19 12:48:26;;;;;;;35.63;16.83;;;;;;;;;;5096207;28;20020;-78
2022/12/19 12:51:12;;;;;;;38.47;15.57;;;;;;;;;;5081528;28;20020;-79
2022/12/19 12:54:06;;;;;;;41.70;17.30;;;;;;;;;;5095970;28;20469;-76
2022/12/19 12:56:53;;;;;;;34.00;16.40;;;;;;;;;;5098226;28;20455;-77
2022/12/19 12:59:43;;;;;;;36.25;17.23;;;;;;;;;;5095535;28;20020;-76
2022/12/19 13:02:29;;;;;;;39.58;18.02;;;;;;;;;;5094571;28;20048;-76
2022/12/19 13:05:33;;;;;;;38.72;18.45;;;;;;;;;;5094762;28;20035;-76
2022/12/19 13:08:31;;;;;;;35.65;16.30;;;;;;;;;;5096262;28;20020;-74
2022/12/19 13:14:39;;;;;;;35.13;16.33;;;;;;;;;;5094526;28;20015;-74
2022/12/19 13:17:34;;;;;;;35.13;16.45;;;;;;;;;;5080743;28;20470;-74
2022/12/19 13:20:22;;;;;;;38.97;18.75;;;;;;;;;;5094495;28;20028;-73
2022/12/19 13:23:28;;;;;;;38.45;16.90;;;;;;;;;;5080262;28;20452;-74
2022/12/19 13:26:40;;;;;;;36.88;16.33;;;;;;;;;;5075779;28;20024;-74
2022/12/19 13:29:27;;;;;;;38.10;16.92;;;;;;;;;;5095441;28;20020;-75
2022/12/19 13:32:14;;;;;;;30.30;16.17;;;;;;;;;;5080537;28;20016;-74
2022/12/19 13:35:00;;;;;;;36.22;16.33;;;;;;;;;;5094167;28;20097;-74
2022/12/19 13:38:00;;;;;;;36.33;16.63;;;;;;;;;;5094601;28;20020;-75
2022/12/19 13:40:56;;;;;;;34.63;17.23;;;;;;;;;;5079509;28;20028;-74
2022/12/19 13:43:44;;;;;;;34.95;17.10;;;;;;;;;;5094561;28;20020;-73
2022/12/19 13:46:43;;;;;;;35.22;16.98;;;;;;;;;;5095561;28;20031;-74
2022/12/19 13:49:30;;;;;;;33.33;15.77;;;;;;;;;;5080527;28;20024;-74
2022/12/19 13:52:16;;;;;;;39.25;18.33;;;;;;;;;;5079791;28;20089;-73
2022/12/19 13:55:02;;;;;;;35.55;16.92;;;;;;;;;;5094364;28;20358;-72
2022/12/19 13:57:50;;;;;;;36.22;15.85;;;;;;;;;;5093799;28;20358;-73
2022/12/19 14:00:40;;;;;;;34.22;15.80;;;;;;;;;;5094171;28;20024;-74
2022/12/19 14:03:33;;;;;;;30.95;13.95;;;;;;;;;;5095435;28;20026;-73
2022/12/19 14:06:29;;;;;;;36.50;15.30;;;;;;;;;;5094297;28;20027;-77
2022/12/19 14:09:21;;;;;;;29.85;14.15;;;;;;;;;;5080468;28;20027;-77
2022/12/19 14:15:12;;;;;;;35.85;14.82;;;;;;;;;;5093586;28;20461;-75
2022/12/19 14:15:32;;;;;;;34.95;15.32;;;;;;;;;;5094170;28;20024;-72
2022/12/19 14:18:22;;;;;;;28.23;14.35;;;;;;;;;;5080609;28;20020;-74
2022/12/19 14:21:11;;;;;;;32.92;14.05;;;;;;;;;;5078900;28;20362;-74
2022/12/19 14:24:09;;;;;;;30.73;15.05;;;;;;;;;;5079020;28;20077;-74
2022/12/19 14:27:07;;;;;;;32.30;15.20;;;;;;;;;;5065574;28;20031;-76
2022/12/19 14:29:53;;;;;;;31.83;15.20;;;;;;;;;;5095289;28;20035;-74
2022/12/19 14:32:39;;;;;;;28.58;13.77;;;;;;;;;;5093245;28;20067;-74
2022/12/19 14:35:27;;;;;;;32.25;15.23;;;;;;;;;;5079713;28;20031;-78
2022/12/19 14:38:16;;;;;;;38.35;15.45;;;;;;;;;;5093761;28;20465;-78
2022/12/19 14:41:01;;;;;;;38.65;17.52;;;;;;;;;;5080761;28;20128;-79
2022/12/19 14:43:53;;;;;;;35.00;15.52;;;;;;;;;;5093381;28;20043;-79
2022/12/19 14:46:39;;;;;;;32.75;15.38;;;;;;;;;;5094235;28;20092;-80
2022/12/19 14:49:26;;;;;;;40.63;19.00;;;;;;;;;;5081011;28;20016;-79
2022/12/19 14:52:30;;;;;;;34.88;15.25;;;;;;;;;;5079899;28;20042;-77
2022/12/19 14:55:29;;;;;;;36.72;16.67;;;;;;;;;;5094099;28;20330;-79
2022/12/19 14:58:16;;;;;;;31.48;14.68;;;;;;;;;;5079765;28;20111;-78
2022/12/19 15:01:04;;;;;;;37.88;14.85;;;;;;;;;;5094518;28;20440;-74
2022/12/19 15:04:12;;;;;;;33.65;15.05;;;;;;;;;;5093985;28;20394;-74
2022/12/19 15:07:00;;;;;;;39.17;16.45;;;;;;;;;;5093582;28;20012;-74
2022/12/19 15:09:49;;;;;;;35.25;15.27;;;;;;;;;;5093215;28;20047;-74
2022/12/19 15:15:58;;;;;;;35.25;15.70;;;;;;;;;;5093558;28;20024;-76
2022/12/19 15:18:44;;;;;;;44.13;20.10;;;;;;;;;;5093238;28;20032;-76
2022/12/19 15:21:29;;;;;;;45.05;21.95;;;;;;;;;;5094494;28;20083;-75
2022/12/19 15:24:15;;;;;;;56.92;24.92;;;;;;;;;;5078597;28;20099;-74
2022/12/19 15:27:01;;;;;;;44.78;21.98;;;;;;;;;;5106202;28;20051;-75
2022/12/19 15:29:46;;;;;;;41.08;17.55;;;;;;;;;;5097156;28;20031;-73
2022/12/19 15:32:32;;;;;;;43.30;19.67;;;;;;;;;;5096393;28;20057;-76
2022/12/19 15:35:17;;;;;;;52.45;24.83;;;;;;;;;;5096271;28;20008;-75
2022/12/19 15:38:03;;;;;;;42.55;19.42;;;;;;;;;;5094183;28;20009;-74
2022/12/19 15:40:48;;;;;;;46.10;20.00;;;;;;;;;;5083066;28;20040;-75
2022/12/19 15:43:34;;;;;;;42.30;18.73;;;;;;;;;;5113317;28;20016;-74
2022/12/19 15:46:21;;;;;;;39.30;18.67;;;;;;;;;;5099027;28;20008;-74
2022/12/19 15:49:12;;;;;;;49.28;27.52;;;;;;;;;;5116743;28;20068;-75
2022/12/19 15:51:58;;;;;;;42.65;18.63;;;;;;;;;;5116879;28;20050;-76
2022/12/19 15:54:44;;;;;;;38.90;19.77;;;;;;;;;;5116156;28;20024;-77
2022/12/19 15:57:32;;;;;;;43.28;18.10;;;;;;;;;;5102799;28;20051;-73
2022/12/19 16:00:22;;;;;;;46.53;19.10;;;;;;;;;;5118057;28;20008;-74
2022/12/19 16:03:11;;;;;;;51.67;21.17;;;;;;;;;;5115773;28;20051;-74
2022/12/19 16:05:56;;;;;;;62.92;25.38;;;;;;;;;;5113937;28;20071;-76
2022/12/19 16:08:42;;;;;;;55.20;24.13;;;;;;;;;;5101775;28;20016;-74
2022/12/19 16:11:28;;;;;;;59.58;25.33;;;;;;;;;;5101665;28;20016;-74
2022/12/19 16:14:13;;;;;;;57.10;20.45;;;;;;;;;;5100662;28;20080;-76
2022/12/19 16:16:59;;;;;;;82.28;39.40;;;;;;;;;;5116269;28;20020;-79
2022/12/19 16:19:44;;;;;;;49.45;24.23;;;;;;;;;;5116130;28;20025;-78
2022/12/19 16:22:30;;;;;;;49.33;21.38;;;;;;;;;;5098599;28;20031;-78
2022/12/19 16:25:16;;;;;;;48.40;19.30;;;;;;;;;;5099798;28;20012;-78
2022/12/19 16:28:03;;;;;;;46.05;20.35;;;;;;;;;;5099471;28;20020;-79
2022/12/19 16:30:49;;;;;;;43.45;19.02;;;;;;;;;;5091195;28;20041;-74
2022/12/19 16:33:34;;;;;;;41.75;19.25;;;;;;;;;;5116961;28;20035;-75